Time;durP1;ratioP1;P1;durP2;ratioP2;P2;SDS_P1;SDS_P2;PMS_P1;PMS_P2;Temp;Humidity;BMP_temperature;BMP_pressure;BME280_temperature;BME280_humidity;BME280_pressure;Samples;Min_cycle;Max_cycle;Signal;HPM_P1;HPM_P2
2022/08/16 00:01:00;;;;;;;8.47;4.00;;;23.90;99.90;;;;;;5050589;28;20028;-74
2022/08/16 00:03:25;;;;;;;7.47;4.40;;;23.90;99.90;;;;;;5050580;28;20284;-74
2022/08/16 00:05:51;;;;;;;5.23;3.70;;;24.00;99.90;;;;;;5048792;28;20036;-73
2022/08/16 00:08:18;;;;;;;6.57;4.03;;;24.10;99.90;;;;;;5030184;28;20024;-73
2022/08/16 00:10:44;;;;;;;10.10;5.50;;;24.10;99.90;;;;;;5030250;28;20460;-73
2022/08/16 00:13:10;;;;;;;7.68;4.30;;;24.30;99.90;;;;;;5030100;28;20101;-73
2022/08/16 00:15:43;;;;;;;9.45;3.80;;;24.20;99.90;;;;;;5028976;28;20072;-74
2022/08/16 00:18:09;;;;;;;6.22;4.03;;;24.30;99.90;;;;;;5043468;28;20033;-74
2022/08/16 00:20:37;;;;;;;6.88;4.68;;;24.30;99.90;;;;;;5049127;28;20036;-74
2022/08/16 00:23:03;;;;;;;7.22;4.57;;;24.40;99.90;;;;;;5032340;28;20037;-73
2022/08/16 00:25:29;;;;;;;8.45;4.13;;;24.40;99.90;;;;;;5029999;28;20118;-74
2022/08/16 00:27:54;;;;;;;7.82;4.40;;;24.50;99.90;;;;;;5040091;28;20548;-73
2022/08/16 00:30:22;;;;;;;11.33;5.20;;;24.50;99.90;;;;;;5030931;28;20120;-73
2022/08/16 00:32:51;;;;;;;6.20;3.95;;;24.60;99.90;;;;;;5028577;28;20554;-73
2022/08/16 00:35:24;;;;;;;7.18;4.35;;;24.60;99.90;;;;;;5030309;28;20109;-73
2022/08/16 00:37:50;;;;;;;5.43;3.65;;;24.60;99.90;;;;;;5030016;28;20469;-74
2022/08/16 00:40:33;;;;;;;7.93;3.90;;;24.70;99.90;;;;;;5029742;28;20061;-73
2022/08/16 00:42:59;;;;;;;10.27;4.32;;;24.60;99.90;;;;;;5029950;28;20033;-73
2022/08/16 00:45:34;;;;;;;8.20;4.45;;;24.60;99.90;;;;;;5030111;28;20041;-73
2022/08/16 00:48:03;;;;;;;5.30;3.60;;;24.50;99.90;;;;;;5045981;28;20484;-73
2022/08/16 00:50:31;;;;;;;7.65;4.40;;;24.40;99.90;;;;;;5049937;28;20496;-73
2022/08/16 00:52:57;;;;;;;12.00;4.32;;;24.30;99.90;;;;;;5030454;28;20504;-73
2022/08/16 00:55:24;;;;;;;10.07;4.60;;;24.20;99.90;;;;;;5028448;28;20037;-73
2022/08/16 00:57:54;;;;;;;6.60;4.07;;;24.20;99.90;;;;;;5029295;28;20026;-74
2022/08/16 01:00:22;;;;;;;7.97;4.40;;;24.20;99.90;;;;;;5031344;28;20159;-74
2022/08/16 01:02:48;;;;;;;8.18;4.40;;;24.10;99.90;;;;;;5029777;28;20028;-73
2022/08/16 01:05:14;;;;;;;7.05;3.90;;;24.10;99.90;;;;;;5029560;28;20040;-74
2022/08/16 01:07:42;;;;;;;6.75;4.47;;;24.10;99.90;;;;;;5029823;28;20109;-74
2022/08/16 01:10:08;;;;;;;7.68;4.22;;;24.00;99.90;;;;;;5029988;28;20033;-74
2022/08/16 01:12:33;;;;;;;10.80;4.20;;;24.00;99.90;;;;;;5029959;28;20388;-73
2022/08/16 01:14:59;;;;;;;7.40;4.43;;;24.00;99.90;;;;;;5029915;28;20029;-74
2022/08/16 01:17:27;;;;;;;7.40;4.90;;;23.90;99.90;;;;;;5030545;28;20164;-73
2022/08/16 01:19:57;;;;;;;5.97;4.10;;;23.50;99.90;;;;;;5029894;28;20041;-73
2022/08/16 01:22:53;;;;;;;9.75;4.97;;;23.20;99.90;;;;;;5049392;28;20031;-73
2022/08/16 01:25:32;;;;;;;10.23;4.60;;;22.90;99.90;;;;;;5053530;28;20087;-74
2022/08/16 01:28:01;;;;;;;8.20;4.97;;;22.60;99.90;;;;;;5034041;28;20029;-74
2022/08/16 01:30:33;;;;;;;7.57;5.20;;;22.30;99.90;;;;;;5033724;28;20543;-73
2022/08/16 01:33:01;;;;;;;8.98;5.10;;;22.00;99.90;;;;;;5033288;28;20025;-73
2022/08/16 01:35:31;;;;;;;7.20;5.10;;;21.80;99.90;;;;;;5042198;28;20067;-74
2022/08/16 01:38:15;;;;;;;8.63;5.78;;;21.60;99.90;;;;;;5052928;28;20112;-74
2022/08/16 01:40:41;;;;;;;8.70;5.65;;;21.40;99.90;;;;;;5051447;28;20049;-74
2022/08/16 01:43:07;;;;;;;8.37;5.53;;;21.30;99.90;;;;;;5051708;28;20431;-74
2022/08/16 01:45:32;;;;;;;9.20;5.63;;;21.30;99.90;;;;;;5046355;28;20508;-74
2022/08/16 01:47:58;;;;;;;6.65;4.80;;;21.20;99.90;;;;;;5033000;28;20029;-74
2022/08/16 01:50:24;;;;;;;9.60;5.23;;;21.10;99.90;;;;;;5039395;28;20047;-74
2022/08/16 01:52:50;;;;;;;6.27;4.60;;;21.00;99.90;;;;;;5053574;28;20024;-75
2022/08/16 01:55:17;;;;;;;6.73;4.57;;;21.10;99.90;;;;;;5051636;28;20565;-75
2022/08/16 01:57:43;;;;;;;8.63;4.68;;;21.20;99.90;;;;;;5033940;28;20037;-73
2022/08/16 02:00:10;;;;;;;8.85;4.85;;;21.30;99.90;;;;;;5033162;28;20036;-73
2022/08/16 02:02:36;;;;;;;9.00;4.80;;;21.60;99.90;;;;;;5032623;28;20366;-74
2022/08/16 02:05:03;;;;;;;8.80;4.70;;;21.60;99.90;;;;;;5042111;28;20112;-74
2022/08/16 02:07:29;;;;;;;8.48;4.53;;;21.70;99.90;;;;;;5052474;28;20063;-74
2022/08/16 02:09:55;;;;;;;5.85;4.45;;;21.90;99.90;;;;;;5052651;28;20041;-74
2022/08/16 02:12:20;;;;;;;8.70;4.50;;;21.90;99.90;;;;;;5052590;28;20526;-74
2022/08/16 02:14:46;;;;;;;8.93;4.80;;;22.00;99.90;;;;;;5048005;28;20033;-74
2022/08/16 02:17:12;;;;;;;8.40;5.17;;;22.00;99.90;;;;;;5033568;28;20524;-74
2022/08/16 02:19:40;;;;;;;6.80;4.53;;;22.00;99.90;;;;;;5033784;28;20029;-74
2022/08/16 02:22:10;;;;;;;9.18;5.20;;;22.00;99.90;;;;;;5032624;28;20737;-73
2022/08/16 02:24:37;;;;;;;7.32;4.68;;;21.90;99.90;;;;;;5032361;28;20098;-74
2022/08/16 02:27:03;;;;;;;7.45;4.82;;;21.90;99.90;;;;;;5047384;28;20535;-73
2022/08/16 02:29:29;;;;;;;7.50;5.00;;;21.80;99.90;;;;;;5032390;28;20080;-74
2022/08/16 02:31:55;;;;;;;7.73;5.03;;;21.80;99.90;;;;;;5047471;28;20057;-74
2022/08/16 02:34:21;;;;;;;9.77;5.13;;;21.80;99.90;;;;;;5049757;28;20029;-74
2022/08/16 02:36:47;;;;;;;8.95;4.85;;;21.70;99.90;;;;;;5051152;28;20440;-73
2022/08/16 02:39:13;;;;;;;;;;;21.70;99.90;;;;;;5050937;28;20061;-74
2022/08/16 02:41:41;;;;;;;7.53;4.75;;;21.70;99.90;;;;;;5051976;28;19908;-74
2022/08/16 02:44:10;;;;;;;7.88;5.72;;;21.60;99.90;;;;;;5048474;28;20108;-74
2022/08/16 02:46:36;;;;;;;7.60;4.75;;;21.50;99.90;;;;;;5036427;28;20029;-74
2022/08/16 02:49:03;;;;;;;8.18;5.35;;;21.40;99.90;;;;;;5047588;28;20029;-74
2022/08/16 02:51:28;;;;;;;7.72;5.07;;;21.30;99.90;;;;;;5031876;28;20352;-74
2022/08/16 02:53:54;;;;;;;7.07;4.77;;;21.30;99.90;;;;;;5030610;28;20479;-74
2022/08/16 02:56:20;;;;;;;8.80;5.47;;;21.20;99.90;;;;;;5049495;28;20424;-74
2022/08/16 02:58:49;;;;;;;8.27;5.50;;;21.10;99.90;;;;;;5050316;28;20021;-73
2022/08/16 03:01:20;;;;;;;8.32;5.45;;;21.10;99.90;;;;;;5050275;28;20822;-74
2022/08/16 03:03:46;;;;;;;7.47;4.68;;;21.00;99.90;;;;;;5044110;28;20080;-73
2022/08/16 03:06:12;;;;;;;9.50;5.80;;;21.00;99.90;;;;;;5031603;28;20037;-74
2022/08/16 03:08:38;;;;;;;9.40;5.63;;;20.90;99.90;;;;;;5031585;28;20555;-74
2022/08/16 03:11:03;;;;;;;8.27;5.57;;;20.90;99.90;;;;;;5030131;28;20030;-74
2022/08/16 03:13:29;;;;;;;9.37;5.60;;;20.90;99.90;;;;;;5032683;28;20359;-74
2022/08/16 03:15:55;;;;;;;10.30;5.90;;;20.90;99.90;;;;;;5050328;28;20033;-73
2022/08/16 03:18:20;;;;;;;10.30;6.13;;;20.80;99.90;;;;;;5049468;28;20036;-74
2022/08/16 03:20:46;;;;;;;9.00;5.90;;;20.90;99.90;;;;;;5031712;28;20034;-74
2022/08/16 03:23:12;;;;;;;10.43;5.90;;;20.90;99.90;;;;;;5031371;28;20033;-73
2022/08/16 03:25:38;;;;;;;11.73;5.57;;;21.10;99.90;;;;;;5047825;28;20404;-74
2022/08/16 03:28:05;;;;;;;10.80;5.80;;;21.20;99.90;;;;;;5051171;28;20040;-74
2022/08/16 03:30:33;;;;;;;9.63;5.88;;;21.30;99.90;;;;;;5051730;28;20060;-73
2022/08/16 03:32:59;;;;;;;11.68;6.05;;;21.40;99.90;;;;;;5048146;28;20021;-74
2022/08/16 03:35:28;;;;;;;9.10;5.78;;;21.50;99.90;;;;;;5050957;28;20052;-74
2022/08/16 03:37:56;;;;;;;7.88;5.05;;;21.40;99.90;;;;;;5051511;28;20480;-74
2022/08/16 03:40:22;;;;;;;7.07;5.10;;;21.40;99.90;;;;;;5049559;28;20495;-74
2022/08/16 03:42:48;;;;;;;7.75;5.57;;;21.40;99.90;;;;;;5048682;28;20078;-74
2022/08/16 03:45:14;;;;;;;7.60;5.87;;;21.40;99.90;;;;;;5028943;28;20098;-74
2022/08/16 03:47:40;;;;;;;9.48;5.63;;;21.40;99.90;;;;;;5031465;28;20412;-74
2022/08/16 03:50:08;;;;;;;7.45;5.28;;;21.40;99.90;;;;;;5031752;28;20048;-74
2022/08/16 03:52:34;;;;;;;8.93;5.55;;;21.50;99.90;;;;;;5030840;28;20064;-73
2022/08/16 03:55:01;;;;;;;8.45;5.20;;;21.50;99.90;;;;;;5031090;28;20048;-74
2022/08/16 03:57:28;;;;;;;9.65;6.15;;;21.50;99.90;;;;;;5030776;28;20385;-73
2022/08/16 03:59:54;;;;;;;7.30;5.53;;;21.50;99.90;;;;;;5041991;28;20045;-73
2022/08/16 04:02:20;;;;;;;12.47;6.03;;;21.40;99.90;;;;;;5050497;28;20365;-74
2022/08/16 04:04:45;;;;;;;7.05;5.10;;;21.50;99.90;;;;;;5033576;28;20043;-73
2022/08/16 04:07:11;;;;;;;7.63;5.13;;;21.50;99.90;;;;;;5029382;28;20064;-73
2022/08/16 04:09:37;;;;;;;8.87;5.40;;;21.60;99.90;;;;;;5038119;28;20033;-73
2022/08/16 04:12:04;;;;;;;8.80;5.60;;;21.60;99.90;;;;;;5049297;28;20269;-73
2022/08/16 04:14:29;;;;;;;8.55;5.57;;;21.60;99.90;;;;;;5049449;28;20037;-74
2022/08/16 04:16:55;;;;;;;9.60;5.70;;;21.60;99.90;;;;;;5050668;28;20025;-74
2022/08/16 04:19:22;;;;;;;11.47;6.03;;;21.60;99.90;;;;;;5033385;28;20517;-74
2022/08/16 04:21:47;;;;;;;7.82;5.25;;;21.60;99.90;;;;;;5029233;28;20022;-73
2022/08/16 04:24:13;;;;;;;9.67;6.97;;;21.60;99.90;;;;;;5029203;28;20037;-74
2022/08/16 04:26:39;;;;;;;8.80;5.65;;;21.60;99.90;;;;;;5045074;28;20029;-74
2022/08/16 04:29:05;;;;;;;9.13;5.90;;;21.60;99.90;;;;;;5050129;28;20427;-74
2022/08/16 04:31:30;;;;;;;7.47;5.43;;;21.60;99.90;;;;;;5050239;28;20075;-74
2022/08/16 04:33:58;;;;;;;10.97;5.90;;;21.60;99.90;;;;;;5037916;28;20026;-73
2022/08/16 04:36:26;;;;;;;8.98;6.10;;;21.60;99.90;;;;;;5030163;28;20024;-73
2022/08/16 04:38:52;;;;;;;9.77;5.95;;;21.70;99.90;;;;;;5028333;28;20119;-74
2022/08/16 04:41:17;;;;;;;8.73;5.57;;;21.70;99.90;;;;;;5030338;28;20061;-74
2022/08/16 04:43:43;;;;;;;8.53;5.93;;;21.70;99.90;;;;;;5033049;28;20119;-73
2022/08/16 04:46:09;;;;;;;11.65;6.05;;;21.70;99.90;;;;;;5048468;28;20559;-74
2022/08/16 04:48:35;;;;;;;10.60;5.60;;;21.70;99.90;;;;;;5044120;28;20144;-73
2022/08/16 04:51:01;;;;;;;13.55;5.68;;;21.70;99.90;;;;;;5030181;28;20018;-73
2022/08/16 04:53:27;;;;;;;8.75;5.72;;;21.70;99.90;;;;;;5029715;28;20237;-74
2022/08/16 04:55:53;;;;;;;11.52;5.57;;;21.60;99.90;;;;;;5033327;28;20033;-74
2022/08/16 04:58:19;;;;;;;8.93;6.07;;;21.60;99.90;;;;;;5032873;28;20393;-74
2022/08/16 05:00:45;;;;;;;9.55;5.97;;;21.70;99.90;;;;;;5032951;28;20188;-74
2022/08/16 05:03:12;;;;;;;10.05;6.18;;;21.70;99.90;;;;;;5041722;28;20033;-74
2022/08/16 05:05:40;;;;;;;8.80;5.63;;;21.70;99.90;;;;;;5054187;28;20044;-73
2022/08/16 05:08:06;;;;;;;9.73;5.78;;;21.70;99.90;;;;;;5053564;28;20384;-73
2022/08/16 05:10:32;;;;;;;12.48;5.75;;;21.80;99.90;;;;;;5052317;28;20381;-73
2022/08/16 05:13:00;;;;;;;10.77;6.40;;;21.80;99.90;;;;;;5050099;28;20029;-73
2022/08/16 05:15:27;;;;;;;15.80;6.55;;;21.90;99.90;;;;;;5033694;28;20363;-74
2022/08/16 05:17:53;;;;;;;9.27;5.93;;;21.90;99.90;;;;;;5035595;28;20025;-73
2022/08/16 05:20:19;;;;;;;8.40;5.93;;;22.00;99.90;;;;;;5053934;28;20045;-73
2022/08/16 05:22:45;;;;;;;9.25;5.40;;;22.00;99.90;;;;;;5052309;28;20029;-73
2022/08/16 05:25:12;;;;;;;8.27;5.75;;;22.20;99.90;;;;;;5049275;28;20123;-73
2022/08/16 05:27:38;;;;;;;10.38;5.93;;;22.20;99.90;;;;;;5053364;28;20538;-73
2022/08/16 05:30:06;;;;;;;9.05;5.22;;;22.30;99.90;;;;;;5053652;28;20040;-74
2022/08/16 05:32:33;;;;;;;7.28;5.25;;;22.30;99.90;;;;;;5045368;28;20035;-73
2022/08/16 05:34:59;;;;;;;;;;;22.40;99.90;;;;;;5032803;28;20489;-73
2022/08/16 05:37:25;;;;;;;9.38;5.72;;;22.30;99.90;;;;;;5033306;28;20008;-73
2022/08/16 05:39:51;;;;;;;17.47;5.20;;;22.40;99.90;;;;;;5032960;28;20133;-74
2022/08/16 05:42:16;;;;;;;10.05;5.38;;;22.30;99.90;;;;;;5031863;28;20029;-74
2022/08/16 05:44:42;;;;;;;8.70;5.50;;;22.40;99.90;;;;;;5051307;28;20064;-73
2022/08/16 05:47:08;;;;;;;9.13;5.67;;;22.30;99.90;;;;;;5051945;28;20028;-71
2022/08/16 05:49:33;;;;;;;11.77;5.40;;;22.30;99.90;;;;;;5033177;28;20038;-73
2022/08/16 05:51:59;;;;;;;9.27;5.63;;;22.30;99.90;;;;;;5032950;28;20021;-73
2022/08/16 05:54:26;;;;;;;8.07;5.30;;;22.30;99.90;;;;;;5046619;28;20037;-73
2022/08/16 05:56:54;;;;;;;9.48;5.13;;;22.30;99.90;;;;;;5052820;28;20353;-73
2022/08/16 05:59:19;;;;;;;7.68;5.50;;;22.40;99.90;;;;;;5052702;28;20061;-73
2022/08/16 06:01:49;;;;;;;11.73;5.63;;;22.40;99.90;;;;;;5047663;28;20501;-74
2022/08/16 06:04:15;;;;;;;8.85;6.03;;;22.50;99.90;;;;;;5032981;28;20035;-74
2022/08/16 06:06:42;;;;;;;9.10;5.60;;;22.50;99.90;;;;;;5032949;28;20416;-72
2022/08/16 06:09:08;;;;;;;12.20;6.28;;;22.50;99.90;;;;;;5030672;28;20282;-73
2022/08/16 06:11:33;;;;;;;9.07;5.53;;;22.60;99.90;;;;;;5032463;28;20044;-73
2022/08/16 06:13:59;;;;;;;8.47;4.83;;;22.60;99.90;;;;;;5051058;28;20435;-73
2022/08/16 06:16:25;;;;;;;11.63;5.37;;;22.60;99.90;;;;;;5052431;28;20030;-73
2022/08/16 06:18:50;;;;;;;8.57;5.23;;;22.50;99.90;;;;;;5033493;28;20477;-74
2022/08/16 06:21:16;;;;;;;10.87;5.57;;;22.50;99.90;;;;;;5032702;28;20159;-73
2022/08/16 06:23:41;;;;;;;11.00;5.37;;;22.50;99.90;;;;;;5045466;28;20029;-73
2022/08/16 06:26:07;;;;;;;10.93;5.93;;;22.40;99.90;;;;;;5049644;28;20025;-73
2022/08/16 06:28:33;;;;;;;8.70;6.07;;;22.30;99.90;;;;;;5050593;28;20029;-74
2022/08/16 06:30:59;;;;;;;8.10;5.47;;;22.10;99.90;;;;;;5052323;28;20043;-74
2022/08/16 06:33:25;;;;;;;11.07;5.47;;;22.00;99.90;;;;;;5038636;28;20025;-73
2022/08/16 06:35:52;;;;;;;10.77;6.27;;;21.90;99.90;;;;;;5032286;28;20048;-74
2022/08/16 06:38:17;;;;;;;9.57;6.50;;;21.90;99.90;;;;;;5030955;28;20044;-74
2022/08/16 06:40:43;;;;;;;9.47;5.80;;;21.90;99.90;;;;;;5032752;28;20053;-74
2022/08/16 06:43:09;;;;;;;7.90;6.43;;;21.90;99.90;;;;;;5051737;28;20112;-74
2022/08/16 06:45:36;;;;;;;19.33;7.00;;;22.00;99.90;;;;;;5052137;28;20293;-74
2022/08/16 06:48:04;;;;;;;8.63;6.20;;;22.00;99.90;;;;;;5043499;28;20029;-74
2022/08/16 06:50:31;;;;;;;11.07;6.65;;;22.10;99.90;;;;;;5030548;28;20033;-73
2022/08/16 06:52:57;;;;;;;8.18;6.35;;;22.20;99.90;;;;;;5046893;28;20032;-74
2022/08/16 06:55:23;;;;;;;11.77;5.80;;;22.20;99.90;;;;;;5052220;28;20029;-73
2022/08/16 06:57:50;;;;;;;12.15;6.30;;;22.30;99.90;;;;;;5051653;28;20025;-74
2022/08/16 07:00:16;;;;;;;8.65;5.97;;;22.40;99.90;;;;;;5051843;28;20059;-74
2022/08/16 07:02:43;;;;;;;11.43;6.73;;;22.40;99.90;;;;;;5039620;28;20065;-73
2022/08/16 07:05:13;;;;;;;;;;;22.50;99.90;;;;;;5030844;28;20278;-74
2022/08/16 07:07:39;;;;;;;12.50;7.72;;;22.60;99.90;;;;;;5030241;28;19909;-74
2022/08/16 07:10:07;;;;;;;11.48;6.85;;;22.60;99.90;;;;;;5030177;28;20037;-74
2022/08/16 07:12:33;;;;;;;10.93;6.75;;;22.60;99.90;;;;;;5045902;28;20043;-74
2022/08/16 07:14:59;;;;;;;10.55;7.13;;;22.60;99.90;;;;;;5031691;28;20389;-73
2022/08/16 07:17:26;;;;;;;14.80;8.07;;;22.60;99.90;;;;;;5037089;28;20428;-73
2022/08/16 07:19:53;;;;;;;17.85;8.55;;;22.70;99.90;;;;;;5048898;28;20750;-73
2022/08/16 07:22:19;;;;;;;11.57;7.75;;;22.60;99.90;;;;;;5049960;28;20052;-73
2022/08/16 07:24:44;;;;;;;13.33;8.30;;;22.50;99.90;;;;;;5050545;28;20493;-74
2022/08/16 07:27:10;;;;;;;14.70;7.90;;;22.40;99.90;;;;;;5051018;28;20032;-75
2022/08/16 07:29:37;;;;;;;11.52;7.30;;;22.40;99.90;;;;;;5051118;28;20487;-73
2022/08/16 07:32:03;;;;;;;;;;;22.40;99.90;;;;;;5041870;28;20113;-73
2022/08/16 07:34:29;;;;;;;12.43;7.45;;;22.30;99.90;;;;;;5031108;28;20008;-73
2022/08/16 07:36:55;;;;;;;13.23;7.53;;;22.30;99.90;;;;;;5031377;28;20492;-74
2022/08/16 07:39:20;;;;;;;11.63;8.43;;;22.30;99.90;;;;;;5030791;28;20053;-74
2022/08/16 07:41:46;;;;;;;16.23;8.57;;;22.30;99.90;;;;;;5033988;28;20768;-74
2022/08/16 07:44:12;;;;;;;14.00;8.20;;;22.40;99.90;;;;;;5049140;28;20040;-74
2022/08/16 07:46:37;;;;;;;11.10;8.35;;;22.30;99.90;;;;;;5045878;28;20037;-73
2022/08/16 07:49:04;;;;;;;13.30;8.10;;;22.30;99.90;;;;;;5030734;28;20041;-73
2022/08/16 07:51:33;;;;;;;15.30;8.32;;;22.30;99.90;;;;;;5030546;28;20033;-73
2022/08/16 07:54:01;;;;;;;13.60;8.45;;;22.20;99.90;;;;;;5030264;28;20037;-73
2022/08/16 07:56:28;;;;;;;13.55;8.23;;;22.10;99.90;;;;;;5029479;28;20052;-73
2022/08/16 07:58:54;;;;;;;;;;;22.20;99.90;;;;;;5031239;28;20041;-74
2022/08/16 08:01:21;;;;;;;9.70;7.47;;;22.20;99.90;;;;;;5037237;28;20319;-73
2022/08/16 08:03:48;;;;;;;10.70;8.05;;;22.10;99.90;;;;;;5049254;28;20024;-73
2022/08/16 08:06:15;;;;;;;9.98;7.72;;;22.00;99.90;;;;;;5050253;28;20025;-74
2022/08/16 08:08:41;;;;;;;;;;;22.00;99.90;;;;;;5050766;28;20344;-74
2022/08/16 08:11:07;;;;;;;9.15;5.55;;;21.90;99.90;;;;;;5048076;28;19999;-74
2022/08/16 08:13:33;;;;;;;9.68;4.90;;;21.80;99.90;;;;;;5031334;28;20104;-74
2022/08/16 08:15:58;;;;;;;8.50;5.00;;;21.80;99.90;;;;;;5030395;28;20037;-74
2022/08/16 08:18:24;;;;;;;10.03;5.07;;;21.70;99.90;;;;;;5050056;28;20064;-74
2022/08/16 08:20:50;;;;;;;8.53;4.83;;;21.60;99.90;;;;;;5050215;28;20102;-75
2022/08/16 08:23:16;;;;;;;7.93;4.75;;;21.50;99.90;;;;;;5046680;28;20037;-74
2022/08/16 08:25:43;;;;;;;9.88;5.32;;;21.40;99.90;;;;;;5047215;28;20068;-74
2022/08/16 08:28:08;;;;;;;;;;;21.30;99.90;;;;;;5049300;28;20029;-74
2022/08/16 08:30:34;;;;;;;10.30;5.97;;;21.30;99.90;;;;;;5044959;28;19924;-74
2022/08/16 08:33:01;;;;;;;9.50;5.75;;;21.30;99.90;;;;;;5029783;28;20026;-74
2022/08/16 08:35:27;;;;;;;8.98;5.63;;;21.30;99.90;;;;;;5030169;28;20046;-74
2022/08/16 08:37:54;;;;;;;12.35;5.82;;;21.10;99.90;;;;;;5028532;28;20163;-74
2022/08/16 08:40:20;;;;;;;9.02;5.60;;;21.00;99.90;;;;;;5028346;28;20073;-74
2022/08/16 08:42:47;;;;;;;6.45;4.40;;;20.80;99.90;;;;;;5037491;28;20076;-74
2022/08/16 08:45:14;;;;;;;6.10;3.93;;;20.60;99.90;;;;;;5029990;28;20053;-74
2022/08/16 08:47:42;;;;;;;8.43;4.13;;;20.50;99.90;;;;;;5049510;28;20108;-74
2022/08/16 08:50:08;;;;;;;8.30;4.18;;;20.40;99.90;;;;;;5049877;28;20041;-74
2022/08/16 08:52:33;;;;;;;5.88;3.80;;;20.30;99.90;;;;;;5045477;28;20040;-75
2022/08/16 08:55:02;;;;;;;7.30;4.60;;;20.20;99.90;;;;;;5029699;28;20373;-75
2022/08/16 08:57:27;;;;;;;7.95;3.78;;;20.10;99.90;;;;;;5029629;28;20021;-75
2022/08/16 08:59:53;;;;;;;7.70;3.93;;;20.00;99.90;;;;;;5028274;28;20128;-75
2022/08/16 09:02:19;;;;;;;8.10;4.45;;;19.90;99.90;;;;;;5044770;28;20059;-74
2022/08/16 09:04:45;;;;;;;7.20;4.37;;;19.90;99.90;;;;;;5049023;28;20041;-74
2022/08/16 09:07:11;;;;;;;9.18;4.43;;;19.90;99.90;;;;;;5049062;28;20527;-74
2022/08/16 09:09:37;;;;;;;8.47;5.57;;;20.00;99.90;;;;;;5047776;28;20036;-74
2022/08/16 09:12:03;;;;;;;8.85;4.90;;;20.00;99.90;;;;;;5046021;28;20036;-73
2022/08/16 09:14:29;;;;;;;7.60;5.05;;;20.00;99.90;;;;;;5047926;28;20384;-74
2022/08/16 09:16:55;;;;;;;8.18;6.10;;;20.00;99.90;;;;;;5033863;28;20044;-73
2022/08/16 09:19:21;;;;;;;9.47;6.57;;;20.10;99.90;;;;;;5028419;28;20065;-74
2022/08/16 09:21:48;;;;;;;10.43;6.67;;;20.00;99.90;;;;;;5028931;28;20065;-73
2022/08/16 09:24:15;;;;;;;11.38;7.45;;;20.10;99.90;;;;;;5029069;28;20100;-74
2022/08/16 09:26:41;;;;;;;10.65;7.38;;;20.10;99.90;;;;;;5027865;28;20076;-74
2022/08/16 09:29:07;;;;;;;9.73;6.97;;;20.10;99.90;;;;;;5029291;28;20033;-74
2022/08/16 09:31:33;;;;;;;11.07;7.77;;;20.20;99.90;;;;;;5037278;28;20030;-74
2022/08/16 09:34:00;;;;;;;12.23;7.50;;;20.20;99.90;;;;;;5027760;28;20472;-74
2022/08/16 09:36:26;;;;;;;11.00;7.57;;;20.20;99.90;;;;;;5035174;28;20068;-75
2022/08/16 09:38:52;;;;;;;11.95;8.25;;;20.20;99.90;;;;;;5048682;28;20025;-74
2022/08/16 09:41:18;;;;;;;9.80;7.47;;;20.30;99.90;;;;;;5047646;28;20048;-73
2022/08/16 09:43:44;;;;;;;11.23;7.43;;;20.30;99.90;;;;;;5050768;28;20107;-74
2022/08/16 09:46:10;;;;;;;10.73;8.15;;;20.40;99.90;;;;;;5049446;28;20033;-74
2022/08/16 09:48:40;;;;;;;11.70;7.78;;;20.60;99.90;;;;;;5041022;28;20464;-74
2022/08/16 09:51:09;;;;;;;11.25;7.13;;;20.80;99.90;;;;;;5032410;28;20119;-74
2022/08/16 09:53:35;;;;;;;11.93;7.82;;;21.00;99.90;;;;;;5040411;28;20101;-74
2022/08/16 09:56:03;;;;;;;11.38;7.38;;;21.10;99.90;;;;;;5052454;28;20048;-74
2022/08/16 09:58:29;;;;;;;12.02;8.50;;;21.10;99.90;;;;;;5052190;28;20088;-73
2022/08/16 10:00:55;;;;;;;10.57;7.82;;;21.00;99.90;;;;;;5048565;28;20539;-74
2022/08/16 10:03:21;;;;;;;13.55;8.70;;;20.90;99.90;;;;;;5030929;28;20433;-74
2022/08/16 10:05:48;;;;;;;11.13;8.20;;;20.90;99.90;;;;;;5032269;28;20036;-73
2022/08/16 10:08:15;;;;;;;14.18;8.73;;;20.90;99.90;;;;;;5032424;28;20060;-73
2022/08/16 10:13:10;;;;;;;13.35;9.20;;;20.90;99.90;;;;;;5044058;28;20163;-74
2022/08/16 10:13:28;;;;;;;11.35;8.10;;;21.00;99.90;;;;;;5052429;28;20370;-74
2022/08/16 10:15:58;;;;;;;13.52;9.75;;;21.00;99.90;;;;;;5048819;28;20031;-74
2022/08/16 10:18:26;;;;;;;10.45;7.30;;;21.30;99.90;;;;;;5047546;28;20032;-74
2022/08/16 10:20:52;;;;;;;12.38;8.73;;;21.30;99.90;;;;;;5036104;28;20029;-74
2022/08/16 10:23:18;;;;;;;12.55;7.72;;;21.30;99.90;;;;;;5048333;28;20037;-74
2022/08/16 10:25:44;;;;;;;10.33;7.73;;;21.40;99.90;;;;;;5051661;28;20063;-74
2022/08/16 10:28:12;;;;;;;9.07;7.38;;;21.40;99.90;;;;;;5051934;28;20041;-74
2022/08/16 10:30:42;;;;;;;11.32;8.10;;;21.30;99.90;;;;;;5050421;28;20396;-74
2022/08/16 10:33:08;;;;;;;12.02;7.90;;;21.20;99.90;;;;;;5048373;28;20480;-74
2022/08/16 10:35:34;;;;;;;;;;;21.20;99.90;;;;;;5052668;28;20028;-74
2022/08/16 10:38:00;;;;;;;12.13;7.97;;;21.20;99.90;;;;;;5050708;28;20367;-75
2022/08/16 10:40:25;;;;;;;10.23;7.32;;;21.10;99.90;;;;;;5044051;28;20088;-75
2022/08/16 10:42:51;;;;;;;15.10;7.90;;;21.10;99.90;;;;;;5031917;28;20505;-74
2022/08/16 10:45:17;;;;;;;15.00;8.00;;;21.10;99.90;;;;;;5032176;28;20091;-74
2022/08/16 10:47:43;;;;;;;12.32;7.63;;;21.10;99.90;;;;;;5031457;28;20458;-74
2022/08/16 10:50:10;;;;;;;11.38;8.15;;;21.10;99.90;;;;;;5031482;28;20530;-74
2022/08/16 10:52:35;;;;;;;13.65;9.00;;;21.10;99.90;;;;;;5030304;28;20457;-75
2022/08/16 10:55:01;;;;;;;13.03;8.30;;;21.10;99.90;;;;;;5031785;28;20034;-75
2022/08/16 10:57:30;;;;;;;13.13;8.17;;;21.10;99.90;;;;;;5050060;28;20496;-74
2022/08/16 10:59:57;;;;;;;11.65;7.68;;;21.20;99.90;;;;;;5050031;28;20033;-73
2022/08/16 11:02:23;;;;;;;11.30;7.97;;;21.20;99.90;;;;;;5042195;28;20072;-74
2022/08/16 11:04:49;;;;;;;12.82;8.38;;;21.30;99.90;;;;;;5030160;28;20037;-74
2022/08/16 11:07:15;;;;;;;11.97;8.77;;;21.30;99.90;;;;;;5032555;28;20269;-74
2022/08/16 11:09:40;;;;;;;9.37;7.33;;;21.40;99.90;;;;;;5031413;28;20543;-74
2022/08/16 11:12:06;;;;;;;10.40;7.40;;;21.60;99.90;;;;;;5031444;28;20036;-74
2022/08/16 11:14:33;;;;;;;11.52;7.80;;;21.60;99.90;;;;;;5031197;28;20033;-73
2022/08/16 11:17:01;;;;;;;;;;;21.60;99.90;;;;;;5031065;28;20029;-73
2022/08/16 11:19:28;;;;;;;10.25;7.03;;;21.60;99.90;;;;;;5036534;28;19913;-74
2022/08/16 11:21:54;;;;;;;10.73;7.80;;;21.70;99.90;;;;;;5051061;28;20060;-74
2022/08/16 11:24:21;;;;;;;10.52;7.82;;;21.90;99.90;;;;;;5049797;28;20481;-74
2022/08/16 11:26:47;;;;;;;13.20;8.40;;;21.90;99.90;;;;;;5049109;28;20106;-74
2022/08/16 11:29:13;;;;;;;12.25;7.90;;;21.90;99.90;;;;;;5050283;28;20033;-74
2022/08/16 11:31:39;;;;;;;10.87;8.30;;;22.00;99.90;;;;;;5049521;28;20136;-73
2022/08/16 11:34:04;;;;;;;13.23;8.00;;;22.00;99.90;;;;;;5033329;28;20112;-74
2022/08/16 11:36:30;;;;;;;8.90;7.43;;;22.00;99.90;;;;;;5031100;28;20025;-74
2022/08/16 11:38:58;;;;;;;10.30;8.57;;;22.00;99.90;;;;;;5030520;28;20120;-74
2022/08/16 11:41:24;;;;;;;11.75;7.68;;;22.00;99.90;;;;;;5036740;28;20262;-74
2022/08/16 11:43:50;;;;;;;11.25;9.00;;;22.00;99.90;;;;;;5049193;28;20771;-74
2022/08/16 11:46:16;;;;;;;12.07;8.27;;;22.00;99.90;;;;;;5050239;28;20056;-73
2022/08/16 11:48:44;;;;;;;14.63;8.52;;;22.10;99.90;;;;;;5045482;28;20025;-74
2022/08/16 11:51:10;;;;;;;12.38;8.38;;;22.10;99.90;;;;;;5047002;28;20179;-73
2022/08/16 11:53:36;;;;;;;10.63;8.27;;;22.10;99.90;;;;;;5050173;28;20029;-66
2022/08/16 11:56:02;;;;;;;12.93;7.70;;;22.10;99.90;;;;;;5049152;28;20044;-67
2022/08/16 11:58:28;;;;;;;10.20;7.73;;;22.10;99.90;;;;;;5028740;28;20391;-66
2022/08/16 12:00:56;;;;;;;15.40;8.75;;;22.20;99.90;;;;;;5030381;28;20030;-66
2022/08/16 12:03:25;;;;;;;11.35;8.70;;;22.20;99.90;;;;;;5035225;28;20435;-66
2022/08/16 12:05:50;;;;;;;11.00;8.55;;;22.20;99.90;;;;;;5038959;28;20036;-67
2022/08/16 12:08:16;;;;;;;11.30;8.67;;;22.30;99.90;;;;;;5030098;28;20034;-66
2022/08/16 12:10:45;;;;;;;13.40;9.15;;;22.30;99.90;;;;;;5030407;28;20171;-66
2022/08/16 12:13:11;;;;;;;16.00;10.85;;;22.30;99.90;;;;;;5030406;28;20443;-66
2022/08/16 12:15:38;;;;;;;13.68;8.95;;;22.30;99.90;;;;;;5035135;28;20452;-67
2022/08/16 12:18:05;;;;;;;15.88;10.18;;;22.30;99.90;;;;;;5034558;28;20048;-66
2022/08/16 12:20:39;;;;;;;13.30;9.52;;;22.30;99.90;;;;;;5038586;28;20345;-68
2022/08/16 12:23:05;;;;;;;12.82;9.10;;;22.30;99.90;;;;;;5037832;28;20171;-67
2022/08/16 12:25:32;;;;;;;12.50;9.03;;;22.30;99.90;;;;;;5049744;28;20147;-67
2022/08/16 12:27:58;;;;;;;12.82;10.15;;;22.40;99.90;;;;;;5042270;28;20222;-67
2022/08/16 12:30:29;;;;;;;13.63;9.73;;;22.40;99.90;;;;;;5042425;28;20024;-69
2022/08/16 12:33:00;;;;;;;20.15;13.93;;;22.30;99.90;;;;;;5029420;28;20021;-68
2022/08/16 12:35:27;;;;;;;12.60;9.43;;;22.20;99.90;;;;;;5033860;28;20227;-68
2022/08/16 12:37:52;;;;;;;10.93;9.25;;;22.20;99.90;;;;;;5027751;28;20033;-65
2022/08/16 12:40:23;;;;;;;13.97;10.30;;;22.30;99.90;;;;;;5032078;28;20049;-67
2022/08/16 12:42:50;;;;;;;14.30;10.15;;;22.40;99.90;;;;;;5033091;28;20265;-66